Custer, Kentucky
Current Conditions -  °F | °C
As of 9:58 PM on Saturday 25 Oct 2014 (Local Time) from KFTK Reporting Station
Clear Clear  
Wind Chill: 59°   Ceiling: Unl
Heat Index: 59°   Visibility: 10mi
Dew Point: 54°   Wind: 7mph
Humidity: 86%   Direction: 250°WSW
Pressure: 29.97"   Gusts: NA
Location:  37.74°N, 86.25°W
Report Text: KFTK 260258Z AUTO 25006KT 10SM CLR 15/12 A2997 RMK AO2 SLP150 T01480124 57002
Loading
Personal Weather Stations






























Interactive Weather Map
Tropical Storm Tracking
New forecast layout! Learn more

10-Day Weather Forecast

Advertisements
Track Severe Weather on mobile